Time;durP1;ratioP1;P1;durP2;ratioP2;P2;SDS_P1;SDS_P2;PMS_P1;PMS_P2;Temp;Humidity;BMP_temperature;BMP_pressure;BME280_temperature;BME280_humidity;BME280_pressure;Samples;Min_cycle;Max_cycle;Signal;HPM_P1;HPM_P2
2022/01/01 07:34:05;;;;;;;;;28.50;22.00;;;;;-149.69;100.00;58464.25;6165012;22;46298;-90
2022/01/01 07:36:30;;;;;;;;;33.00;24.00;;;;;-149.69;100.00;58464.25;6240016;22;45203;-92
2022/01/01 07:38:55;;;;;;;;;29.33;27.33;;;;;-149.69;100.00;58464.25;6238879;22;45640;-93
2022/01/01 07:41:22;;;;;;;;;26.67;23.33;;;;;-149.69;100.00;58464.25;6212211;22;45311;-93
2022/01/01 07:43:47;;;;;;;;;25.33;23.00;;;;;-149.69;100.00;58464.25;6211698;22;47689;-92
2022/01/01 07:46:12;;;;;;;;;29.67;28.00;;;;;-149.69;100.00;58464.25;6240042;22;45299;-92
2022/01/01 07:48:38;;;;;;;;;33.00;26.33;;;;;-149.69;100.00;58464.25;6239095;22;45706;-93
2022/01/01 07:51:03;;;;;;;;;28.33;25.33;;;;;-149.69;100.00;58464.25;6240710;22;45420;-92
2022/01/01 07:53:28;;;;;;;;;27.67;27.00;;;;;-149.69;100.00;58464.25;6214831;22;51134;-91
2022/01/01 07:55:54;;;;;;;;;34.33;27.33;;;;;-149.69;100.00;58464.25;6213278;22;45804;-92
2022/01/01 07:58:19;;;;;;;;;26.00;23.00;;;;;-149.69;100.00;58464.25;6242064;22;45523;-91
2022/01/01 08:00:44;;;;;;;;;32.00;26.00;;;;;-149.69;100.00;58464.25;6216787;22;45434;-88
2022/01/01 08:03:11;;;;;;;;;29.00;27.33;;;;;-149.69;100.00;58464.25;6238290;22;46611;-90
2022/01/01 08:05:37;;;;;;;;;24.33;23.33;;;;;-149.69;100.00;58464.25;6240378;22;45395;-88
2022/01/01 08:08:03;;;;;;;;;19.33;19.33;;;;;-149.69;100.00;58464.25;6240193;22;45322;-86
2022/01/01 08:10:29;;;;;;;;;28.33;24.00;;;;;-149.69;100.00;58464.25;6238462;22;45395;-86
2022/01/01 08:12:55;;;;;;;;;24.00;21.67;;;;;-149.69;100.00;58464.25;6239157;22;45988;-87
2022/01/01 08:15:21;;;;;;;;;23.33;22.67;;;;;-149.69;100.00;58464.25;6238828;22;45321;-83
2022/01/01 08:17:46;;;;;;;;;25.00;24.33;;;;;-149.69;100.00;58464.25;6239043;22;45640;-85
2022/01/01 08:20:12;;;;;;;;;19.33;18.67;;;;;-149.69;100.00;58464.25;6237192;22;45536;-86
2022/01/01 08:22:37;;;;;;;;;22.33;22.33;;;;;-149.69;100.00;58464.25;6239516;22;45282;-85
2022/01/01 08:25:02;;;;;;;;;22.00;21.00;;;;;-149.69;100.00;58464.25;6238574;22;57333;-84
2022/01/01 08:27:28;;;;;;;;;30.67;23.00;;;;;-149.69;100.00;58464.25;6239096;22;45246;-85
2022/01/01 08:29:53;;;;;;;;;21.33;20.00;;;;;-149.69;100.00;58464.25;6240259;22;45419;-85
2022/01/01 08:32:18;;;;;;;;;24.00;21.00;;;;;-149.69;100.00;58464.25;6239847;22;45429;-86
2022/01/01 08:34:44;;;;;;;;;21.00;20.00;;;;;-149.69;100.00;58464.25;6238553;22;45269;-87
2022/01/01 08:37:09;;;;;;;;;23.67;18.00;;;;;-149.69;100.00;58464.25;6239891;22;45533;-86
2022/01/01 08:39:36;;;;;;;;;25.67;17.00;;;;;-149.69;100.00;58464.25;6239384;22;45262;-85
2022/01/01 08:42:02;;;;;;;;;23.33;21.00;;;;;-149.69;100.00;58464.25;6239222;22;46469;-85
2022/01/01 08:44:27;;;;;;;;;19.67;18.33;;;;;-149.69;100.00;58464.25;6238641;22;45341;-85
2022/01/01 08:46:52;;;;;;;;;18.67;17.00;;;;;-149.69;100.00;58464.25;6238812;22;45341;-84
2022/01/01 08:49:18;;;;;;;;;19.67;17.67;;;;;-149.69;100.00;58464.25;6239365;22;45255;-85
2022/01/01 08:51:44;;;;;;;;;26.33;23.33;;;;;-149.69;100.00;58464.25;6239819;22;45728;-85
2022/01/01 08:54:12;;;;;;;;;22.00;21.00;;;;;-149.69;100.00;58464.25;6242590;22;45117;-87
2022/01/01 08:56:38;;;;;;;;;22.33;19.00;;;;;-149.69;100.00;58464.25;6239819;22;45448;-85
2022/01/01 08:59:03;;;;;;;;;21.00;17.67;;;;;-149.69;100.00;58464.25;6236530;22;45393;-84
2022/01/01 09:01:29;;;;;;;;;22.67;20.00;;;;;-149.69;100.00;58464.25;6239839;22;45436;-85
2022/01/01 09:03:56;;;;;;;;;23.67;22.00;;;;;-149.69;100.00;58464.25;6239941;22;45358;-85
2022/01/01 09:06:21;;;;;;;;;21.67;19.00;;;;;-149.69;100.00;58464.25;6238655;22;45340;-87
2022/01/01 09:08:47;;;;;;;;;17.67;15.33;;;;;-149.69;100.00;58464.25;6240008;22;45413;-85
2022/01/01 09:11:13;;;;;;;;;21.00;18.00;;;;;-149.69;100.00;58464.25;6239090;22;46052;-86
2022/01/01 09:13:43;;;;;;;;;17.67;16.67;;;;;-149.69;100.00;58464.25;6238678;22;45346;-85
2022/01/01 09:16:13;;;;;;;;;19.00;15.67;;;;;-149.69;100.00;58464.25;6239515;22;45362;-84
2022/01/01 09:18:39;;;;;;;;;20.67;19.00;;;;;-149.69;100.00;58464.25;6239163;22;45418;-86
2022/01/01 09:21:06;;;;;;;;;15.33;14.33;;;;;-149.69;100.00;58464.25;6240048;22;46012;-86
2022/01/01 09:23:32;;;;;;;;;22.33;17.67;;;;;-149.69;100.00;58464.25;6239272;22;45471;-85
2022/01/01 09:25:57;;;;;;;;;18.00;15.33;;;;;-149.69;100.00;58464.25;6238612;22;45417;-87
2022/01/01 09:28:23;;;;;;;;;24.67;19.00;;;;;-149.69;100.00;58464.25;6238471;22;45295;-87
2022/01/01 09:30:48;;;;;;;;;16.33;14.67;;;;;-149.69;100.00;58464.25;6239487;22;45243;-86
2022/01/01 09:33:14;;;;;;;;;20.33;17.33;;;;;-149.69;100.00;58464.25;6238903;22;45340;-87
2022/01/01 09:35:40;;;;;;;;;17.00;16.33;;;;;-149.69;100.00;58464.25;6239969;22;45374;-89
2022/01/01 09:38:05;;;;;;;;;17.67;16.33;;;;;-149.69;100.00;58464.25;6240335;22;45227;-90
2022/01/01 09:40:32;;;;;;;;;17.33;15.00;;;;;-149.69;100.00;58464.25;6212100;22;47881;-91
2022/01/01 09:42:58;;;;;;;;;26.00;18.00;;;;;-149.69;100.00;58464.25;6212620;22;45583;-89
2022/01/01 09:45:24;;;;;;;;;22.67;19.33;;;;;-149.69;100.00;58464.25;6241165;22;45320;-92
2022/01/01 09:47:50;;;;;;;;;18.00;16.00;;;;;-149.69;100.00;58464.25;6238393;22;45802;-90
2022/01/01 09:50:15;;;;;;;;;18.67;18.67;;;;;-149.69;100.00;58464.25;6239845;22;46907;-90
2022/01/01 09:52:41;;;;;;;;;18.00;16.00;;;;;-149.69;100.00;58464.25;6239872;22;45432;-89
2022/01/01 09:55:06;;;;;;;;;19.67;17.67;;;;;-149.69;100.00;58464.25;6242514;22;45406;-91
2022/01/01 09:57:32;;;;;;;;;19.67;18.00;;;;;-149.69;100.00;58464.25;6241167;22;45361;-89
2022/01/01 09:59:57;;;;;;;;;15.67;14.00;;;;;-149.69;100.00;58464.25;6241551;22;46392;-91
2022/01/01 10:02:23;;;;;;;;;17.33;14.33;;;;;-149.69;100.00;58464.25;6243461;22;45261;-91
2022/01/01 10:04:51;;;;;;;;;14.67;14.67;;;;;-149.69;100.00;58464.25;6212348;22;45572;-91
2022/01/01 10:07:25;;;;;;;;;16.33;14.67;;;;;-149.69;100.00;58464.25;6240441;22;45484;-89
2022/01/01 10:09:51;;;;;;;;;13.00;13.00;;;;;-149.69;100.00;58464.25;6237954;22;47465;-90
2022/01/01 10:12:17;;;;;;;;;11.33;11.33;;;;;-149.69;100.00;58464.25;6239700;22;45415;-89
2022/01/01 10:14:48;;;;;;;;;16.00;15.00;;;;;-149.69;100.00;58464.25;6213279;22;45375;-88
2022/01/01 10:17:22;;;;;;;;;14.67;14.00;;;;;-149.69;100.00;58464.25;6239768;22;45519;-92
2022/01/01 10:20:03;;;;;;;;;14.67;12.33;;;;;-149.69;100.00;58464.25;6213165;22;47341;-91
2022/01/01 10:22:28;;;;;;;;;18.00;14.67;;;;;-149.69;100.00;58464.25;6236280;22;45807;-88
2022/01/01 10:28:04;;;;;;;;;15.00;15.00;;;;;-149.69;100.00;58464.25;6239512;22;45326;-91
2022/01/01 10:30:36;;;;;;;;;14.00;11.67;;;;;-149.69;100.00;58464.25;6212139;22;48628;-89
2022/01/01 10:33:08;;;;;;;;;15.67;15.00;;;;;-149.69;100.00;58464.25;6239050;22;45469;-88
2022/01/01 10:35:37;;;;;;;;;14.33;14.33;;;;;-149.69;100.00;58464.25;6239526;22;45400;-89
2022/01/01 10:38:04;;;;;;;;;20.00;14.00;;;;;-149.69;100.00;58464.25;6239312;22;45295;-89
2022/01/01 10:40:30;;;;;;;;;15.67;14.00;;;;;-149.69;100.00;58464.25;6237169;22;45463;-91
2022/01/01 10:42:55;;;;;;;;;15.33;15.33;;;;;-149.69;100.00;58464.25;6210530;22;45377;-89
2022/01/01 10:45:51;;;;;;;;;16.00;13.33;;;;;-149.69;100.00;58464.25;6210447;22;45883;-90
2022/01/01 10:48:28;;;;;;;;;15.00;14.00;;;;;-149.69;100.00;58464.25;6238089;22;45534;-88
2022/01/01 10:50:55;;;;;;;;;14.67;14.67;;;;;-149.69;100.00;58464.25;6239398;22;46366;-89
2022/01/01 10:53:26;;;;;;;;;15.33;13.33;;;;;-149.69;100.00;58464.25;6240238;22;45619;-90
2022/01/01 10:55:57;;;;;;;;;15.00;12.33;;;;;-149.69;100.00;58464.25;6237188;22;45344;-90
2022/01/01 10:58:26;;;;;;;;;16.00;13.33;;;;;-149.69;100.00;58464.25;6222406;22;45467;-89
2022/01/01 11:00:57;;;;;;;;;6.00;6.00;;;;;-149.69;100.00;58464.25;6223282;22;47003;-89
2022/01/01 11:03:23;;;;;;;;;11.00;9.50;;;;;-149.69;100.00;58464.25;6243097;22;45421;-89
2022/01/01 11:05:50;;;;;;;;;15.00;13.00;;;;;-149.69;100.00;58464.25;6239589;22;45755;-89
2022/01/01 11:08:17;;;;;;;;;17.67;14.67;;;;;-149.69;100.00;58464.25;6238786;22;45387;-89
2022/01/01 11:10:42;;;;;;;;;16.33;15.00;;;;;-149.69;100.00;58464.25;6240703;22;45316;-90
2022/01/01 11:13:09;;;;;;;;;14.33;12.00;;;;;-149.69;100.00;58464.25;6238012;22;45713;-89
2022/01/01 11:15:35;;;;;;;;;14.00;12.00;;;;;-149.69;100.00;58464.25;6212817;22;45331;-89
2022/01/01 11:18:01;;;;;;;;;10.67;10.67;;;;;-149.69;100.00;58464.25;6240637;22;45385;-90
2022/01/01 11:20:33;;;;;;;;;15.67;14.67;;;;;-149.69;100.00;58464.25;6238584;22;47137;-88
2022/01/01 11:23:02;;;;;;;;;15.00;14.67;;;;;-149.69;100.00;58464.25;6247551;22;45251;-89
2022/01/01 11:25:28;;;;;;;;;16.33;13.00;;;;;-149.69;100.00;58464.25;6246040;22;45399;-87
2022/01/01 11:27:54;;;;;;;;;17.00;12.33;;;;;-149.69;100.00;58464.25;6252473;22;45395;-86
2022/01/01 11:30:19;;;;;;;;;17.00;14.00;;;;;-149.69;100.00;58464.25;6216145;22;47071;-90
2022/01/01 11:32:53;;;;;;;;;18.33;16.67;;;;;-149.69;100.00;58464.25;6239699;22;45318;-90
2022/01/01 11:35:21;;;;;;;;;15.67;14.33;;;;;-149.69;100.00;58464.25;6240546;22;45373;-90
2022/01/01 11:37:55;;;;;;;;;16.67;14.67;;;;;-149.69;100.00;58464.25;6239332;22;45434;-89
2022/01/01 11:40:21;;;;;;;;;15.33;13.00;;;;;-149.69;100.00;58464.25;6234374;22;47252;-87
2022/01/01 11:42:47;;;;;;;;;13.33;11.33;;;;;-149.69;100.00;58464.25;6239538;22;45336;-89
2022/01/01 11:45:40;;;;;;;;;16.33;12.33;;;;;-149.69;100.00;58464.25;6238442;22;45508;-89
2022/01/01 11:48:32;;;;;;;;;17.33;15.00;;;;;-149.69;100.00;58464.25;6210022;22;45710;-89
2022/01/01 11:51:19;;;;;;;;;11.00;10.00;;;;;-149.69;100.00;58464.25;6238929;22;45389;-89
2022/01/01 11:54:02;;;;;;;;;13.67;11.33;;;;;-149.69;100.00;58464.25;6240891;22;45264;-89
2022/01/01 11:56:50;;;;;;;;;11.33;10.00;;;;;-149.69;100.00;58464.25;6239162;22;45357;-89
2022/01/01 11:59:26;;;;;;;;;13.33;13.00;;;;;-149.69;100.00;58464.25;6239604;22;45538;-88
2022/01/01 12:01:54;;;;;;;;;13.67;12.33;;;;;-149.69;100.00;58464.25;6238891;22;48320;-88
2022/01/01 12:04:35;;;;;;;;;14.00;11.33;;;;;-149.69;100.00;58464.25;6237182;22;45401;-89
2022/01/01 12:07:09;;;;;;;;;12.67;11.33;;;;;-149.69;100.00;58464.25;6236560;22;45322;-88
2022/01/01 12:10:02;;;;;;;;;12.67;11.00;;;;;-149.69;100.00;58464.25;6239008;22;45323;-89
2022/01/01 12:12:46;;;;;;;;;12.67;11.67;;;;;-149.69;100.00;58464.25;6238340;22;45513;-92
2022/01/01 12:15:24;;;;;;;;;13.00;12.00;;;;;-149.69;100.00;58464.25;6238980;22;45390;-91
2022/01/01 12:17:54;;;;;;;;;12.67;10.33;;;;;-149.69;100.00;58464.25;6236500;22;45334;-90
2022/01/01 12:20:23;;;;;;;;;12.33;12.33;;;;;-149.69;100.00;58464.25;6211357;22;45264;-90
2022/01/01 12:22:50;;;;;;;;;12.67;12.33;;;;;-149.69;100.00;58464.25;6239030;22;46206;-89
2022/01/01 12:25:24;;;;;;;;;12.00;12.00;;;;;-149.69;100.00;58464.25;6242055;22;45362;-91
2022/01/01 12:27:51;;;;;;;;;13.67;12.67;;;;;-149.69;100.00;58464.25;6237196;22;45385;-90
2022/01/01 12:30:38;;;;;;;;;10.33;10.00;;;;;-149.69;100.00;58464.25;6240008;22;45235;-90
2022/01/01 12:33:04;;;;;;;;;16.33;10.67;;;;;-149.69;100.00;58464.25;6239217;22;45315;-88
2022/01/01 12:35:52;;;;;;;;;14.33;12.00;;;;;-149.69;100.00;58464.25;6239300;22;45334;-91
2022/01/01 12:38:24;;;;;;;;;11.33;11.33;;;;;-149.69;100.00;58464.25;6239548;22;45385;-93
2022/01/01 12:40:56;;;;;;;;;10.00;8.67;;;;;-149.69;100.00;58464.25;6236760;22;45276;-91
2022/01/01 12:43:23;;;;;;;;;12.33;12.00;;;;;-149.69;100.00;58464.25;6238908;22;47346;-88
2022/01/01 12:45:53;;;;;;;;;12.00;12.00;;;;;-149.69;100.00;58464.25;6239263;22;45309;-87
2022/01/01 12:48:23;;;;;;;;;12.67;9.67;;;;;-149.69;100.00;58464.25;6211210;22;45603;-87
2022/01/01 12:50:56;;;;;;;;;14.00;12.33;;;;;-149.69;100.00;58464.25;6240504;22;45300;-92
2022/01/01 12:53:22;;;;;;;;;10.33;9.67;;;;;-149.69;100.00;58464.25;6237930;22;46975;-91
2022/01/01 12:56:02;;;;;;;;;14.67;12.00;;;;;-149.69;100.00;58464.25;6212327;22;45959;-91
2022/01/01 12:58:44;;;;;;;;;14.00;11.67;;;;;-149.69;100.00;58464.25;6213328;22;45351;-96
2022/01/01 13:01:15;;;;;;;;;10.00;10.00;;;;;-149.69;100.00;58464.25;6241521;22;45341;-93
2022/01/01 13:03:43;;;;;;;;;15.00;12.33;;;;;-149.69;100.00;58464.25;6237747;22;47611;-93
2022/01/01 13:06:10;;;;;;;;;10.67;10.00;;;;;-149.69;100.00;58464.25;6214713;22;45337;-95
2022/01/01 13:08:42;;;;;;;;;14.00;11.00;;;;;-149.69;100.00;58464.25;6239323;22;45530;-94
2022/01/01 13:11:09;;;;;;;;;7.00;6.00;;;;;-149.69;100.00;58464.25;6240557;22;45315;-95
2022/01/01 13:13:34;;;;;;;;;12.00;12.00;;;;;-149.69;100.00;58464.25;6213424;22;48077;-92
2022/01/01 13:16:00;;;;;;;;;16.00;11.67;;;;;-149.69;100.00;58464.25;6213188;22;45271;-94
2022/01/01 13:18:27;;;;;;;;;12.33;12.33;;;;;-149.69;100.00;58464.25;6235339;22;45476;-92
2022/01/01 13:20:54;;;;;;;;;14.67;13.67;;;;;-149.69;100.00;58464.25;6212479;22;45549;-94
2022/01/01 13:23:21;;;;;;;;;20.00;17.33;;;;;-149.69;100.00;58464.25;6213317;22;48151;-93
2022/01/01 13:25:46;;;;;;;;;17.67;16.67;;;;;-149.69;100.00;58464.25;6212031;22;46032;-95
2022/01/01 13:28:15;;;;;;;;;17.67;16.33;;;;;-149.69;100.00;58464.25;6216946;22;45055;-93
2022/01/01 13:30:41;;;;;;;;;23.67;18.00;;;;;-149.69;100.00;58464.25;6243957;22;45404;-90
2022/01/01 13:33:07;;;;;;;;;14.33;11.33;;;;;-149.69;100.00;58464.25;6241113;22;45457;-94
2022/01/01 13:35:33;;;;;;;;;21.00;15.00;;;;;-149.69;100.00;58464.25;6242476;22;45243;-96
2022/01/01 13:37:59;;;;;;;;;11.67;10.00;;;;;-149.69;100.00;58464.25;6251413;22;45673;-95
2022/01/01 13:40:25;;;;;;;;;13.00;13.00;;;;;-149.69;100.00;58464.25;6243520;22;55174;-96
2022/01/01 13:42:50;;;;;;;;;8.67;8.67;;;;;-149.69;100.00;58464.25;6220414;22;47262;-93
2022/01/01 13:45:15;;;;;;;;;15.33;12.67;;;;;-149.69;100.00;58464.25;6245754;22;54266;-91
2022/01/01 13:47:41;;;;;;;;;17.67;13.00;;;;;-149.69;100.00;58464.25;6238448;22;45363;-93
2022/01/01 13:50:19;;;;;;;;;21.33;17.00;;;;;-149.69;100.00;58464.25;6242217;22;45224;-93
2022/01/01 13:52:57;;;;;;;;;18.67;14.00;;;;;-149.69;100.00;58464.25;6212643;22;47818;-91
2022/01/01 13:55:26;;;;;;;;;12.00;11.67;;;;;-149.69;100.00;58464.25;6237852;22;45452;-92
2022/01/01 13:57:54;;;;;;;;;11.67;10.00;;;;;-149.69;100.00;58464.25;6237553;22;45338;-95
2022/01/01 14:00:20;;;;;;;;;14.00;12.33;;;;;-149.69;100.00;58464.25;6213130;22;45346;-92
2022/01/01 14:02:46;;;;;;;;;10.67;10.67;;;;;-149.69;100.00;58464.25;6235362;22;48144;-93
2022/01/01 14:05:16;;;;;;;;;12.67;12.67;;;;;-149.69;100.00;58464.25;6211392;22;45447;-93
2022/01/01 14:07:41;;;;;;;;;12.33;12.00;;;;;-149.69;100.00;58464.25;6239370;22;45243;-92
2022/01/01 14:10:18;;;;;;;;;15.00;13.33;;;;;-149.69;100.00;58464.25;6211565;22;45354;-92
2022/01/01 14:12:46;;;;;;;;;13.00;13.00;;;;;-149.69;100.00;58464.25;6210503;22;46591;-91
2022/01/01 14:15:22;;;;;;;;;11.33;11.33;;;;;-149.69;100.00;58464.25;6239886;22;45421;-92
2022/01/01 14:17:55;;;;;;;;;13.33;13.00;;;;;-149.69;100.00;58464.25;6210408;22;45408;-92
2022/01/01 14:20:27;;;;;;;;;14.33;14.00;;;;;-149.69;100.00;58464.25;6211312;22;45256;-92
2022/01/01 14:22:53;;;;;;;;;13.67;12.33;;;;;-149.69;100.00;58464.25;6236333;22;47988;-91
2022/01/01 14:25:19;;;;;;;;;16.33;14.00;;;;;-149.69;100.00;58464.25;6238458;22;45500;-91
2022/01/01 14:27:45;;;;;;;;;13.00;11.67;;;;;-149.69;100.00;58464.25;6237897;22;45698;-91
2022/01/01 14:30:10;;;;;;;;;13.33;11.00;;;;;-149.69;100.00;58464.25;6212079;22;45305;-91
2022/01/01 14:32:36;;;;;;;;;16.00;13.33;;;;;-149.69;100.00;58464.25;6236248;22;47264;-91
2022/01/01 14:35:03;;;;;;;;;14.00;14.00;;;;;-149.69;100.00;58464.25;6238640;22;45598;-91
2022/01/01 14:37:30;;;;;;;;;14.00;12.67;;;;;-149.69;100.00;58464.25;6211188;22;45593;-90
2022/01/01 14:39:56;;;;;;;;;12.67;12.00;;;;;-149.69;100.00;58464.25;6239293;22;45366;-91
2022/01/01 14:42:21;;;;;;;;;14.33;13.33;;;;;-149.69;100.00;58464.25;6236108;22;47971;-91
2022/01/01 14:44:46;;;;;;;;;14.00;12.00;;;;;-149.69;100.00;58464.25;6236633;22;45766;-90
2022/01/01 14:47:19;;;;;;;;;13.00;13.00;;;;;-149.69;100.00;58464.25;6238828;22;45331;-92
2022/01/01 14:49:47;;;;;;;;;12.67;12.00;;;;;-149.69;100.00;58464.25;6237318;22;45430;-91
2022/01/01 14:52:41;;;;;;;;;12.00;12.00;;;;;-149.69;100.00;58464.25;6238485;22;45581;-91
2022/01/01 14:56:01;;;;;;;;;13.00;12.00;;;;;-149.69;100.00;58464.25;6230173;22;45268;-91
2022/01/01 14:58:32;;;;;;;;;13.33;12.33;;;;;-149.69;100.00;58464.25;6174496;23;45409;-91
2022/01/01 15:00:58;;;;;;;;;10.67;9.33;;;;;-149.69;100.00;58464.25;6174354;23;45445;-91
2022/01/01 15:03:24;;;;;;;;;8.00;7.33;;;;;-149.69;100.00;58464.25;6175364;23;45753;-91
2022/01/01 15:05:52;;;;;;;;;11.00;11.00;;;;;-149.69;100.00;58464.25;6175550;23;45311;-91
2022/01/01 15:08:22;;;;;;;;;13.00;11.00;;;;;-149.69;100.00;58464.25;6174480;23;45453;-91
2022/01/01 15:10:49;;;;;;;;;10.00;10.00;;;;;-149.69;100.00;58464.25;6174801;23;45504;-92
2022/01/01 15:13:16;;;;;;;;;13.00;13.00;;;;;-149.69;100.00;58464.25;6173973;23;48038;-91
2022/01/01 15:15:44;;;;;;;;;15.33;12.33;;;;;-149.69;100.00;58464.25;6173922;23;45823;-91
2022/01/01 15:18:12;;;;;;;;;13.00;13.00;;;;;-149.69;100.00;58464.25;6174052;23;45579;-92
2022/01/01 15:20:44;;;;;;;;;14.00;13.67;;;;;-149.69;100.00;58464.25;6174510;23;45546;-91
2022/01/01 15:23:21;;;;;;;;;15.33;14.33;;;;;-149.69;100.00;58464.25;6174812;23;48158;-88
2022/01/01 15:25:49;;;;;;;;;16.33;13.67;;;;;-149.69;100.00;58464.25;6173858;23;45516;-90
2022/01/01 15:28:19;;;;;;;;;13.00;13.00;;;;;-149.69;100.00;58464.25;6173990;23;45400;-94
2022/01/01 15:30:54;;;;;;;;;16.33;14.33;;;;;-149.69;100.00;58464.25;6174515;23;45403;-92
2022/01/01 15:33:28;;;;;;;;;12.33;11.67;;;;;-149.69;100.00;58464.25;6195663;22;48069;-93
2022/01/01 15:36:40;;;;;;;;;12.67;12.67;;;;;-149.69;100.00;58464.25;6182603;22;45671;-96
2022/01/01 15:39:07;;;;;;;;;24.00;23.00;;;;;-149.69;100.00;58464.25;6179791;23;45597;-91
2022/01/01 15:41:51;;;;;;;;;24.00;18.67;;;;;-149.69;100.00;58464.25;6180488;23;45118;-91
2022/01/01 15:44:14;;;;;;;;;26.67;21.33;;;;;-149.69;100.00;58464.25;6178582;22;45344;-94
2022/01/01 15:46:39;;;;;;;;;18.33;16.67;;;;;-149.69;100.00;58464.25;6176931;23;45649;-93
2022/01/01 15:49:06;;;;;;;;;19.67;17.00;;;;;-149.69;100.00;58464.25;6171034;23;54234;-91
2022/01/01 15:51:32;;;;;;;;;21.67;18.67;;;;;-149.69;100.00;58464.25;6175113;22;45374;-91
2022/01/01 15:53:57;;;;;;;;;17.67;16.67;;;;;-149.69;100.00;58464.25;6174709;23;47989;-91
2022/01/01 15:56:36;;;;;;;;;18.33;16.33;;;;;-149.69;100.00;58464.25;6175417;22;45620;-91
2022/01/01 15:59:04;;;;;;;;;20.33;18.00;;;;;-149.69;100.00;58464.25;6175017;23;45363;-92
2022/01/01 16:01:48;;;;;;;;;20.00;20.00;;;;;-149.69;100.00;58464.25;6200858;22;45362;-90
2022/01/01 16:04:37;;;;;;;;;20.33;20.00;;;;;-149.69;100.00;58464.25;6176649;22;45478;-90
2022/01/01 16:07:07;;;;;;;;;24.33;22.00;;;;;-149.69;100.00;58464.25;6177220;22;45366;-91
2022/01/01 16:09:41;;;;;;;;;29.00;20.67;;;;;-149.69;100.00;58464.25;6175490;23;45311;-90
2022/01/01 16:12:11;;;;;;;;;21.00;20.00;;;;;-149.69;100.00;58464.25;6199648;22;45685;-89
2022/01/01 16:14:49;;;;;;;;;21.67;20.33;;;;;-149.69;100.00;58464.25;6177968;22;45527;-90
2022/01/01 16:17:21;;;;;;;;;21.33;16.67;;;;;-149.69;100.00;58464.25;6177872;22;45349;-91
2022/01/01 16:19:47;;;;;;;;;21.33;17.33;;;;;-149.69;100.00;58464.25;6201555;22;45399;-89
2022/01/01 16:22:13;;;;;;;;;23.33;21.00;;;;;-149.69;100.00;58464.25;6176634;23;45405;-90
2022/01/01 16:24:40;;;;;;;;;19.00;19.00;;;;;-149.69;100.00;58464.25;6177602;22;46265;-90
2022/01/01 16:27:07;;;;;;;;;21.33;20.33;;;;;-149.69;100.00;58464.25;6173802;23;46065;-89
2022/01/01 16:29:33;;;;;;;;;25.00;20.67;;;;;-149.69;100.00;58464.25;6177794;22;45600;-91
2022/01/01 16:32:01;;;;;;;;;24.33;24.00;;;;;-149.69;100.00;58464.25;6175318;23;45317;-91
2022/01/01 16:34:28;;;;;;;;;23.00;21.33;;;;;-149.69;100.00;58464.25;6186500;22;45583;-90
2022/01/01 16:36:53;;;;;;;;;17.67;16.33;;;;;-149.69;100.00;58464.25;6211487;22;45774;-90
2022/01/01 16:39:21;;;;;;;;;21.33;18.00;;;;;-149.69;100.00;58464.25;6210650;22;45302;-90
2022/01/01 16:42:08;;;;;;;;;19.67;19.67;;;;;-149.69;100.00;58464.25;6209595;22;45651;-92
2022/01/01 16:44:49;;;;;;;;;16.67;16.67;;;;;-149.69;100.00;58464.25;6238995;22;45505;-91
2022/01/01 16:47:17;;;;;;;;;22.00;19.33;;;;;-149.69;100.00;58464.25;6237981;22;45551;-91
2022/01/01 16:49:48;;;;;;;;;21.67;20.33;;;;;-149.69;100.00;58464.25;6238017;22;45639;-90
2022/01/01 16:52:13;;;;;;;;;22.67;21.33;;;;;-149.69;100.00;58464.25;6211466;22;45280;-91
2022/01/01 16:54:40;;;;;;;;;29.33;21.67;;;;;-149.69;100.00;58464.25;6237544;22;46100;-92
2022/01/01 16:57:07;;;;;;;;;27.67;24.33;;;;;-149.69;100.00;58464.25;6210399;22;45676;-91
2022/01/01 16:59:34;;;;;;;;;33.75;31.50;;;;;-149.69;100.00;58464.25;6211749;22;45367;-91
2022/01/01 17:02:11;;;;;;;;;43.75;36.50;;;;;-149.69;100.00;58464.25;6210397;22;45311;-92
2022/01/01 17:04:46;;;;;;;;;39.50;33.25;;;;;-149.69;100.00;58464.25;6238194;22;45365;-92
2022/01/01 17:07:11;;;;;;;;;41.75;35.75;;;;;-149.69;100.00;58464.25;6236309;22;45702;-91
2022/01/01 17:09:37;;;;;;;;;31.33;30.33;;;;;-149.69;100.00;58464.25;6237666;22;45252;-92
2022/01/01 17:12:03;;;;;;;;;28.33;25.00;;;;;-149.69;100.00;58464.25;6237873;22;45377;-91
2022/01/01 17:14:29;;;;;;;;;20.67;17.00;;;;;-149.69;100.00;58464.25;6235952;22;47629;-91
2022/01/01 17:17:17;;;;;;;;;20.33;20.33;;;;;-149.69;100.00;58464.25;6238482;22;45362;-91
2022/01/01 17:19:54;;;;;;;;;20.50;18.50;;;;;-149.69;100.00;58464.25;6236696;22;45380;-91
2022/01/01 17:22:22;;;;;;;;;20.33;18.67;;;;;-149.69;100.00;58464.25;6210868;22;45499;-91
2022/01/01 17:24:58;;;;;;;;;19.33;17.67;;;;;-149.69;100.00;58464.25;6235627;22;47592;-91
2022/01/01 17:27:27;;;;;;;;;17.67;16.67;;;;;-149.69;100.00;58464.25;6236077;22;45421;-92
2022/01/01 17:29:57;;;;;;;;;21.00;18.00;;;;;-149.69;100.00;58464.25;6238828;22;45263;-91
2022/01/01 17:32:24;;;;;;;;;15.00;14.00;;;;;-149.69;100.00;58464.25;6210847;22;45569;-92
2022/01/01 17:35:01;;;;;;;;;14.67;13.00;;;;;-149.69;100.00;58464.25;6210197;22;46986;-92
2022/01/01 17:37:43;;;;;;;;;16.00;14.00;;;;;-149.69;100.00;58464.25;6238096;22;45267;-91
2022/01/01 17:40:10;;;;;;;;;17.00;15.00;;;;;-149.69;100.00;58464.25;6208978;22;45510;-91
2022/01/01 17:42:36;;;;;;;;;18.00;14.00;;;;;-149.69;100.00;58464.25;6208605;22;45380;-91
2022/01/01 17:45:03;;;;;;;;;17.33;14.00;;;;;-149.69;100.00;58464.25;6238825;22;46465;-94
2022/01/01 17:47:29;;;;;;;;;11.67;11.67;;;;;-149.69;100.00;58464.25;6211880;22;45380;-92
2022/01/01 17:50:07;;;;;;;;;18.00;15.67;;;;;-149.69;100.00;58464.25;6238919;22;45378;-92
2022/01/01 17:52:35;;;;;;;;;16.33;15.67;;;;;-149.69;100.00;58464.25;6210683;22;45362;-91
2022/01/01 17:55:01;;;;;;;;;11.67;11.00;;;;;-149.69;100.00;58464.25;6210718;22;48470;-92
2022/01/01 17:57:28;;;;;;;;;17.00;14.00;;;;;-149.69;100.00;58464.25;6211004;22;45252;-92
2022/01/01 17:59:54;;;;;;;;;13.00;13.00;;;;;-149.69;100.00;58464.25;6211751;22;45257;-92
2022/01/01 18:02:20;;;;;;;;;19.00;18.00;;;;;-149.69;100.00;58464.25;6211872;22;45448;-92
2022/01/01 18:04:49;;;;;;;;;20.00;18.67;;;;;-149.69;100.00;58464.25;6210924;22;46386;-92
2022/01/01 18:07:35;;;;;;;;;21.33;21.00;;;;;-149.69;100.00;58464.25;6211698;22;45335;-91
2022/01/01 18:10:10;;;;;;;;;30.33;27.33;;;;;-149.69;100.00;58464.25;6236833;22;45313;-93
2022/01/01 18:12:42;;;;;;;;;26.67;23.33;;;;;-149.69;100.00;58464.25;6211150;22;45367;-93
2022/01/01 18:15:14;;;;;;;;;32.33;30.67;;;;;-149.69;100.00;58464.25;6212260;22;46992;-93
2022/01/01 18:17:44;;;;;;;;;22.00;20.33;;;;;-149.69;100.00;58464.25;6211647;22;45309;-93
2022/01/01 18:20:13;;;;;;;;;21.67;17.33;;;;;-149.69;100.00;58464.25;6212242;22;45367;-91
2022/01/01 18:23:02;;;;;;;;;19.33;16.00;;;;;-149.69;100.00;58464.25;6249328;22;45434;-94
2022/01/01 18:25:33;;;;;;;;;20.33;19.33;;;;;-149.69;100.00;58464.25;6238595;22;47740;-93
2022/01/01 18:28:03;;;;;;;;;18.67;17.00;;;;;-149.69;100.00;58464.25;6237300;22;45314;-92
2022/01/01 18:30:33;;;;;;;;;22.67;19.33;;;;;-149.69;100.00;58464.25;6237202;22;45322;-93
2022/01/01 18:33:00;;;;;;;;;24.33;20.33;;;;;-149.69;100.00;58464.25;6244461;22;45162;-91
2022/01/01 18:35:27;;;;;;;;;17.67;17.00;;;;;-149.69;100.00;58464.25;6211873;22;47082;-93
2022/01/01 18:37:55;;;;;;;;;18.67;17.00;;;;;-149.69;100.00;58464.25;6240849;22;45363;-91
2022/01/01 18:40:21;;;;;;;;;17.67;15.33;;;;;-149.69;100.00;58464.25;6213366;22;45345;-88
2022/01/01 18:42:47;;;;;;;;;17.00;15.67;;;;;-149.69;100.00;58464.25;6238469;22;45391;-89